Mc Daniels, Kentucky
Current Conditions -  °F | °C
As of 5:58 AM on Sunday 23 Nov 2014 (Local Time) from KFTK Reporting Station
Overcast Overcast  
Wind Chill: 52°   Ceiling: 3600
Heat Index: 52°   Visibility: 10mi
Dew Point: 39°   Wind: 6mph
Humidity: 61%   Direction: 110°ESE
Pressure: 29.95"   Gusts: NA
Location:  37.6134°N, 86.4706°W
Report Text: KFTK 231158Z AUTO 11005KT 10SM BKN036 OVC060 11/04 A2995 RMK AO2 SLP145 70001 T01110038 10123 20102 56016
Loading
Personal Weather Stations






























Interactive Weather Map New forecast layout! Learn more

10-Day Weather Forecast

Advertisements
Track Severe Weather on mobile